Terminal Aerodrome Forecast
Issued by NWS Jackson, MS

Home | Current Version | Previous Version | Text Only | Print | Product List | Glossary On
Versions: 1 2 3 4 5 6 7 8 9 10 11 12 13 14 15 16 17 18
577
FTUS44 KJAN 282331
TAFMEI
TAF
KMEI 282331Z 2900/2924 22005KT P6SM FEW040 BKN150
     FM290900 20003KT 4SM BR SCT025
     FM291200 21004KT P6SM BKN025
     FM291500 25008KT P6SM SCT025 BKN050=

USA.gov is the U.S. government's official web portal to all federal, state and local government web resources and services.